Time;durP1;ratioP1;P1;durP2;ratioP2;P2;SDS_P1;SDS_P2;PMS_P1;PMS_P2;Temp;Humidity;BMP_temperature;BMP_pressure;BME280_temperature;BME280_humidity;BME280_pressure;Samples;Min_cycle;Max_cycle;Signal;HPM_P1;HPM_P2
2021/10/11 03:39:49;;;;;;;3.17;1.58;;;;;;;18.19;64.78;102729.84;4882927;29;20063;-83
2021/10/11 03:46:05;;;;;;;2.97;1.30;;;;;;;18.19;64.66;102732.44;4886838;29;20052;-82
2021/10/11 04:08:54;;;;;;;3.30;1.67;;;;;;;18.19;64.82;102714.19;5285362;23;20036;-83
2021/10/11 05:04:43;;;;;;;2.75;1.42;;;;;;;18.16;64.38;102723.69;4934245;29;20060;-80
2021/10/11 06:28:58;;;;;;;5.63;2.55;;;;;;;18.35;64.15;102736.19;5183422;23;20042;-87
2021/10/11 06:31:23;;;;;;;8.25;3.10;;;;;;;18.36;64.03;102744.91;4920274;29;20064;-84
2021/10/11 06:33:49;;;;;;;7.38;3.17;;;;;;;18.37;63.99;102750.13;4915664;29;20512;-85
2021/10/11 06:36:16;;;;;;;7.57;2.72;;;;;;;18.36;64.12;102751.00;4902270;29;20036;-86
2021/10/11 07:01:38;;;;;;;6.10;2.50;;;;;;;18.60;64.95;102766.19;5237517;23;20539;-92
2021/10/11 07:04:04;;;;;;;7.53;2.50;;;;;;;18.66;64.88;102768.00;4921398;29;20103;-89
2021/10/11 07:06:30;;;;;;;4.75;2.08;;;;;;;18.68;64.77;102769.81;4919144;29;20028;-89
2021/10/11 07:09:10;;;;;;;8.77;2.55;;;;;;;18.63;64.64;102766.22;4902297;29;20548;-91
2021/10/11 07:24:48;;;;;;;5.40;2.30;;;;;;;18.56;64.80;102789.56;4937074;29;20074;-88
2021/10/11 07:30:36;;;;;;;6.65;2.33;;;;;;;18.62;64.64;102797.50;4939339;29;20108;-87
2021/10/11 07:33:03;;;;;;;6.88;2.20;;;;;;;18.65;64.58;102790.59;4915717;29;20028;-88
2021/10/11 07:35:28;;;;;;;4.63;2.13;;;;;;;18.72;64.74;102802.00;4911944;29;20090;-89
2021/10/11 07:37:54;;;;;;;4.60;2.05;;;;;;;18.75;64.49;102799.47;4907008;29;20469;-87
2021/10/11 07:40:20;;;;;;;4.50;2.10;;;;;;;18.70;64.71;102795.88;4894814;29;20043;-88
2021/10/11 07:42:46;;;;;;;5.25;2.00;;;;;;;18.70;64.73;102801.09;4909348;29;20036;-88
2021/10/11 07:45:12;;;;;;;3.78;1.90;;;;;;;18.73;64.52;102795.94;4910094;29;20090;-86
2021/10/11 07:47:37;;;;;;;4.65;2.17;;;;;;;18.73;64.60;102800.25;4895182;29;20504;-88
2021/10/11 07:50:03;;;;;;;5.75;1.85;;;;;;;18.74;64.81;102808.13;4909412;29;20032;-88
2021/10/11 07:52:28;;;;;;;3.08;1.70;;;;;;;18.75;64.67;102820.31;4909222;29;20065;-88
2021/10/11 07:54:54;;;;;;;4.57;2.15;;;;;;;18.90;64.33;102818.00;4907006;29;20028;-88
2021/10/11 07:57:19;;;;;;;5.15;1.83;;;;;;;19.18;63.30;102814.94;4872187;29;20557;-90
2021/10/11 07:59:45;;;;;;;4.32;1.90;;;;;;;19.05;63.58;102814.78;4902014;29;20028;-90
2021/10/11 08:02:10;;;;;;;3.60;1.80;;;;;;;19.14;63.38;102815.75;4887384;29;20028;-89
2021/10/11 08:04:35;;;;;;;4.00;1.73;;;;;;;19.04;63.88;102818.22;4872045;29;20477;-89
2021/10/11 08:07:01;;;;;;;3.88;1.80;;;;;;;19.08;63.95;102824.38;4872229;29;20028;-89
2021/10/11 08:09:26;;;;;;;4.68;2.20;;;;;;;19.20;63.62;102821.94;4903074;29;20028;-90
2021/10/11 08:11:52;;;;;;;4.47;1.80;;;;;;;19.05;63.65;102816.47;4887989;29;20032;-89
2021/10/11 08:14:17;;;;;;;3.40;1.70;;;;;;;19.05;63.65;102812.16;4886191;29;20565;-90
2021/10/11 08:16:43;;;;;;;3.80;1.80;;;;;;;18.98;63.81;102818.13;4869101;29;20033;-89
2021/10/11 08:19:09;;;;;;;3.90;1.65;;;;;;;18.99;64.23;102824.19;4884664;29;20051;-90
2021/10/11 08:21:34;;;;;;;3.55;1.60;;;;;;;19.00;64.14;102820.75;4885200;29;20029;-88
2021/10/11 08:24:01;;;;;;;3.75;1.80;;;;;;;19.11;64.60;102819.19;4868961;29;20084;-90
2021/10/11 08:26:27;;;;;;;2.90;1.67;;;;;;;19.17;64.03;102824.50;4884645;29;20119;-89
2021/10/11 08:28:53;;;;;;;3.22;1.67;;;;;;;19.11;64.54;102817.44;4854026;29;20056;-89
2021/10/11 08:31:18;;;;;;;4.43;1.70;;;;;;;19.10;65.18;102815.72;4884523;29;20033;-90
2021/10/11 08:33:44;;;;;;;3.13;1.65;;;;;;;19.11;64.76;102821.81;4869585;29;20034;-90
2021/10/11 08:36:13;;;;;;;2.70;1.60;;;;;;;19.13;65.19;102822.69;4884551;29;20024;-91
2021/10/11 08:38:39;;;;;;;3.08;1.35;;;;;;;19.15;64.47;102817.53;4883852;29;20029;-90
2021/10/11 08:41:07;;;;;;;3.55;1.67;;;;;;;19.14;65.52;102824.47;4883687;29;20039;-90
2021/10/11 08:43:35;;;;;;;5.82;1.60;;;;;;;19.03;65.44;102821.69;4868256;29;20091;-90
2021/10/11 08:46:01;;;;;;;3.22;1.52;;;;;;;18.95;66.38;102822.44;4869146;29;20025;-89
2021/10/11 08:48:27;;;;;;;4.50;1.70;;;;;;;18.87;66.35;102830.13;4869617;29;20029;-90
2021/10/11 08:50:52;;;;;;;3.58;1.50;;;;;;;18.81;66.83;102830.00;4888450;29;20178;-89
2021/10/11 08:53:18;;;;;;;4.00;1.85;;;;;;;18.78;66.81;102830.84;4873200;29;20482;-90
2021/10/11 08:56:04;;;;;;;4.05;1.70;;;;;;;18.75;67.06;102828.16;4875789;29;20039;-89
2021/10/11 08:58:50;;;;;;;3.90;1.50;;;;;;;18.75;66.63;102840.28;4891136;29;20028;-88
2021/10/11 09:01:20;;;;;;;3.65;1.50;;;;;;;18.76;67.00;102834.25;4856695;29;20037;-89
2021/10/11 09:03:45;;;;;;;3.30;1.48;;;;;;;18.74;66.90;102838.56;4890057;29;20028;-91
2021/10/11 09:06:12;;;;;;;2.95;1.70;;;;;;;18.71;67.10;102848.06;4874031;29;20039;-88
2021/10/11 09:08:40;;;;;;;3.50;1.50;;;;;;;18.69;67.25;102839.34;4892960;29;20024;-89
2021/10/11 09:11:11;;;;;;;3.35;1.60;;;;;;;18.71;67.17;102842.88;4892191;29;20028;-88
2021/10/11 09:26:51;;;;;;;2.70;1.23;;;;;;;18.73;66.99;102845.50;4909519;29;20080;-87
2021/10/11 09:29:39;;;;;;;3.75;1.50;;;;;;;18.74;67.11;102839.41;4875803;29;20477;-89
2021/10/11 09:32:08;;;;;;;4.10;1.63;;;;;;;18.75;67.05;102841.19;4886549;29;20056;-89
2021/10/11 09:34:35;;;;;;;3.30;1.38;;;;;;;18.76;66.94;102837.72;4886742;29;20036;-88
2021/10/11 09:40:24;;;;;;;3.28;1.40;;;;;;;18.77;67.03;102851.63;4908395;29;20068;-91
2021/10/11 09:42:50;;;;;;;3.05;1.38;;;;;;;18.75;67.04;102845.50;4871473;29;20029;-89
2021/10/11 09:45:21;;;;;;;2.55;1.27;;;;;;;18.76;66.98;102849.88;4875767;29;20025;-88
2021/10/11 09:47:46;;;;;;;1.90;1.10;;;;;;;18.74;66.91;102851.59;4878173;29;20035;-89
2021/10/11 09:50:14;;;;;;;2.55;1.30;;;;;;;18.73;66.91;102845.50;4860723;29;20033;-89
2021/10/11 09:52:41;;;;;;;4.65;1.50;;;;;;;18.70;67.08;102843.72;4892061;29;20088;-89
2021/10/11 09:58:30;;;;;;;3.20;1.52;;;;;;;18.74;67.03;102843.78;4853552;29;20064;-92
2021/10/11 10:00:56;;;;;;;7.88;1.23;;;;;;;18.73;67.01;102842.00;4804764;29;20034;-92
2021/10/11 10:03:22;;;;;;;2.33;1.10;;;;;;;18.74;67.04;102846.38;4822394;29;20140;-89
2021/10/11 10:05:50;;;;;;;2.35;1.20;;;;;;;18.73;66.92;102834.16;4806977;29;20034;-90
2021/10/11 10:08:21;;;;;;;3.55;1.20;;;;;;;18.73;67.15;102836.78;4822871;29;20527;-88
2021/10/11 10:10:52;;;;;;;3.47;1.30;;;;;;;18.70;67.05;102837.59;4821526;29;20163;-91
2021/10/11 10:13:19;;;;;;;3.28;1.20;;;;;;;18.71;66.85;102832.44;4837336;29;20098;-88
2021/10/11 10:15:46;;;;;;;1.83;1.23;;;;;;;18.70;67.16;102829.78;4822981;29;20034;-88
2021/10/11 10:18:16;;;;;;;2.67;1.30;;;;;;;18.71;66.99;102839.38;4821759;29;20046;-89
2021/10/11 10:27:33;;;;;;;2.33;1.10;;;;;;;18.73;66.90;102849.81;4849987;29;20090;-88
2021/10/11 10:29:59;;;;;;;;;;;;;;;18.73;66.96;102848.13;4881091;29;20033;-90
2021/10/11 10:32:25;;;;;;;3.67;1.30;;;;;;;18.75;66.71;102842.91;4884459;29;19911;-89
2021/10/11 10:35:01;;;;;;;3.50;1.30;;;;;;;18.73;66.88;102837.69;4886068;29;20036;-88
2021/10/11 10:37:45;;;;;;;2.33;1.20;;;;;;;18.75;66.66;102841.19;4856545;29;20033;-89
2021/10/11 10:40:14;;;;;;;3.30;1.20;;;;;;;18.74;66.65;102846.38;4901441;29;20032;-90
2021/10/11 10:42:39;;;;;;;2.50;1.20;;;;;;;18.74;66.84;102835.94;4891303;29;20125;-89
2021/10/11 10:45:23;;;;;;;4.90;1.20;;;;;;;18.73;66.78;102836.78;4874971;29;20099;-89
2021/10/11 10:47:50;;;;;;;3.38;1.20;;;;;;;18.75;66.69;102843.81;4890395;29;20032;-89
2021/10/11 10:50:17;;;;;;;2.92;1.33;;;;;;;18.74;66.63;102836.81;4872223;29;20035;-89
2021/10/11 10:52:55;;;;;;;3.50;1.00;;;;;;;18.73;66.90;102850.72;4888573;29;20445;-89
2021/10/11 10:55:21;;;;;;;2.55;1.10;;;;;;;18.74;66.71;102848.97;4906005;29;20029;-87
2021/10/11 10:57:47;;;;;;;2.15;1.05;;;;;;;18.75;66.62;102846.41;4889456;29;20025;-89
2021/10/11 11:16:40;;;;;;;2.85;1.00;;;;;;;18.80;66.21;102849.13;4911123;29;20065;-88
2021/10/11 11:19:08;;;;;;;4.15;1.15;;;;;;;18.79;66.73;102840.44;4859593;29;20104;-88
2021/10/11 11:21:34;;;;;;;2.90;1.20;;;;;;;18.78;66.35;102836.06;4876116;29;20040;-90
2021/10/11 11:23:59;;;;;;;2.65;1.13;;;;;;;18.78;66.62;102837.78;4884656;29;20024;-90
2021/10/11 11:26:32;;;;;;;3.47;1.00;;;;;;;18.79;66.20;102837.81;4887902;29;20008;-89
2021/10/11 11:32:19;;;;;;;3.33;1.13;;;;;;;18.82;66.17;102837.00;4920479;29;20051;-88
2021/10/11 11:34:45;;;;;;;3.58;1.15;;;;;;;18.82;66.12;102842.22;4907220;29;20032;-88
2021/10/11 11:40:26;;;;;;;2.58;1.13;;;;;;;18.84;65.74;102830.94;4996092;23;20139;-89
2021/10/11 11:42:54;;;;;;;2.80;1.23;;;;;;;18.85;65.69;102826.59;4918731;29;20035;-88
2021/10/11 11:45:21;;;;;;;2.60;1.00;;;;;;;18.85;65.73;102822.25;4893726;29;20066;-88
2021/10/11 11:54:31;;;;;;;1.80;0.90;;;;;;;18.93;65.46;102832.84;4932827;29;20046;-91
2021/10/11 11:56:56;;;;;;;1.83;0.93;;;;;;;18.96;64.88;102832.88;4923910;29;20544;-91
2021/10/11 11:59:21;;;;;;;2.22;1.00;;;;;;;18.95;64.77;102827.66;4874927;29;20140;-91
2021/10/11 12:01:47;;;;;;;2.63;0.93;;;;;;;18.96;65.27;102834.59;4874905;29;20030;-90
2021/10/11 12:04:13;;;;;;;3.25;1.20;;;;;;;18.96;65.02;102840.69;4889272;29;20430;-91
2021/10/11 12:06:40;;;;;;;2.78;1.10;;;;;;;18.94;64.96;102826.75;4875419;29;20035;-91
2021/10/11 12:09:06;;;;;;;5.97;1.25;;;;;;;18.95;64.89;102825.91;4891800;29;20100;-91
2021/10/11 12:11:31;;;;;;;2.47;1.10;;;;;;;18.97;64.86;102820.72;4889877;29;20040;-90
2021/10/11 12:13:59;;;;;;;2.55;0.90;;;;;;;18.98;65.04;102828.56;4891525;29;20032;-92
2021/10/11 12:16:26;;;;;;;2.33;1.00;;;;;;;18.95;64.53;102828.50;4891913;29;20038;-91
2021/10/11 12:18:54;;;;;;;2.72;1.17;;;;;;;18.96;64.84;102818.94;4908740;29;20055;-92
2021/10/11 12:31:20;;;;;;;2.30;1.00;;;;;;;18.96;64.55;102819.81;4930510;29;20112;-92
2021/10/11 12:33:45;;;;;;;2.53;0.93;;;;;;;18.97;64.93;102821.59;4908872;29;20023;-90
2021/10/11 12:36:12;;;;;;;1.95;0.90;;;;;;;18.97;64.67;102829.41;4894115;29;20024;-91
2021/10/11 12:38:40;;;;;;;3.75;1.00;;;;;;;18.98;64.71;102828.56;4887839;29;20052;-91
2021/10/11 12:41:28;;;;;;;1.80;1.00;;;;;;;18.99;64.91;102825.09;4890899;29;20468;-92
2021/10/11 12:54:00;;;;;;;1.88;0.90;;;;;;;18.97;64.51;102819.00;4908894;29;20043;-92
2021/10/11 12:56:27;;;;;;;2.67;1.10;;;;;;;18.97;64.64;102820.72;4887130;29;20032;-93
2021/10/11 12:59:03;;;;;;;2.65;0.80;;;;;;;18.99;64.28;102819.88;4891416;29;20056;-91
2021/10/11 13:01:29;;;;;;;2.30;0.90;;;;;;;18.99;64.20;102816.38;4887724;29;20385;-91
2021/10/11 13:03:55;;;;;;;2.10;1.00;;;;;;;19.01;64.04;102823.41;4872252;29;20041;-91
2021/10/11 13:13:06;;;;;;;3.42;0.88;;;;;;;19.02;63.59;102813.84;4904892;29;20136;-92
2021/10/11 13:15:31;;;;;;;2.47;0.93;;;;;;;19.01;63.73;102814.66;4900482;29;20032;-91
2021/10/11 13:17:59;;;;;;;2.72;0.90;;;;;;;19.02;63.72;102812.09;4854570;29;20032;-88
2021/10/11 13:20:25;;;;;;;2.83;1.00;;;;;;;19.04;63.84;102823.44;4871685;29;20089;-91
2021/10/11 13:22:50;;;;;;;2.05;0.90;;;;;;;19.07;63.48;102813.03;4902817;29;20434;-89
2021/10/11 13:25:17;;;;;;;4.50;0.82;;;;;;;19.09;63.57;102806.09;4869347;29;20036;-88
2021/10/11 13:27:42;;;;;;;3.47;0.90;;;;;;;19.15;63.68;102812.31;4869739;29;20466;-91
2021/10/11 13:34:00;;;;;;;2.40;0.90;;;;;;;19.22;63.52;102806.31;4867464;29;20041;-92
2021/10/11 14:31:03;;;;;;;1.40;0.70;;;;;;;19.27;63.54;102797.69;4901530;29;20175;-92
2021/10/11 15:59:29;;;;;;;6.63;2.45;;;;;;;19.09;63.84;102766.09;4908693;29;20044;-91
2021/10/11 16:05:17;;;;;;;8.65;2.17;;;;;;;19.04;63.93;102758.19;4919638;29;20052;-92
2021/10/11 16:07:43;;;;;;;10.18;2.70;;;;;;;19.04;64.09;102754.72;4887114;29;20032;-92
2021/10/11 16:10:18;;;;;;;9.00;2.25;;;;;;;19.01;64.01;102750.34;4898124;29;20020;-92
2021/10/11 16:19:32;;;;;;;8.43;2.40;;;;;;;19.00;63.87;102763.34;4944074;23;20060;-92
2021/10/11 16:28:43;;;;;;;6.82;2.38;;;;;;;18.95;63.94;102760.69;4929356;29;20051;-92
2021/10/11 16:31:12;;;;;;;7.20;2.20;;;;;;;18.94;63.91;102763.25;4912011;29;20100;-92
2021/10/11 16:37:06;;;;;;;6.78;2.53;;;;;;;18.93;64.05;102766.75;4933534;29;20066;-92
2021/10/11 16:39:31;;;;;;;6.22;2.22;;;;;;;18.93;64.06;102771.97;4906655;29;20036;-88
2021/10/11 16:41:57;;;;;;;5.00;2.08;;;;;;;18.91;64.10;102754.53;4899041;29;20519;-89
2021/10/11 16:57:17;;;;;;;5.60;1.83;;;;;;;18.95;64.15;102750.25;4929033;29;20055;-91
2021/10/11 17:00:19;;;;;;;7.85;2.58;;;;;;;18.96;64.12;102748.50;4909102;29;20059;-91
2021/10/11 17:03:03;;;;;;;6.57;2.30;;;;;;;19.00;63.89;102759.00;4897906;29;20036;-91
2021/10/11 17:06:09;;;;;;;7.32;2.17;;;;;;;19.04;63.90;102759.94;4908756;29;20066;-92
2021/10/11 17:12:16;;;;;;;6.35;2.35;;;;;;;19.03;63.96;102753.84;4887045;29;20048;-87
2021/10/11 17:14:42;;;;;;;6.18;1.98;;;;;;;19.05;63.89;102752.16;4882433;29;20036;-92
2021/10/11 17:17:07;;;;;;;5.43;2.03;;;;;;;19.08;63.85;102757.41;4864916;29;20443;-90
2021/10/11 17:19:33;;;;;;;5.57;2.00;;;;;;;19.09;64.02;102755.66;4865725;29;20040;-89
2021/10/11 17:21:58;;;;;;;8.65;2.00;;;;;;;19.09;64.09;102759.13;4851308;29;20029;-86
2021/10/11 17:24:45;;;;;;;8.18;2.58;;;;;;;19.11;63.99;102757.44;4850653;29;20506;-90
2021/10/11 17:27:21;;;;;;;7.32;2.45;;;;;;;19.10;64.24;102754.81;4866433;29;20470;-89
2021/10/11 17:29:46;;;;;;;6.03;2.22;;;;;;;19.10;64.07;102754.81;4866671;29;20162;-89
2021/10/11 17:32:12;;;;;;;6.95;2.00;;;;;;;19.05;64.11;102748.63;4868564;29;20150;-88
2021/10/11 17:34:38;;;;;;;5.70;1.77;;;;;;;19.06;64.26;102759.09;4868785;29;20037;-88
2021/10/11 17:37:03;;;;;;;4.45;1.80;;;;;;;19.04;64.10;102757.34;4852047;29;20586;-89
2021/10/11 17:39:28;;;;;;;7.50;1.90;;;;;;;19.04;64.40;102759.94;4864344;29;20044;-92
2021/10/11 17:41:54;;;;;;;5.88;2.10;;;;;;;19.02;64.26;102757.31;4890061;29;20060;-91
2021/10/11 17:44:20;;;;;;;5.60;2.00;;;;;;;19.01;64.43;102752.06;4874216;29;20024;-89
2021/10/11 17:46:46;;;;;;;8.60;2.42;;;;;;;19.00;64.32;102750.31;4905618;29;20055;-90
2021/10/11 17:49:12;;;;;;;4.55;2.03;;;;;;;19.00;64.49;102753.78;4893629;29;20073;-90
2021/10/11 17:51:37;;;;;;;7.38;2.10;;;;;;;19.00;64.60;102764.22;4875760;29;20037;-89
2021/10/11 17:54:03;;;;;;;4.97;1.88;;;;;;;18.98;64.55;102755.50;4862722;29;20470;-89
2021/10/11 17:56:28;;;;;;;4.45;1.70;;;;;;;18.98;64.37;102758.09;4859190;29;20032;-90
2021/10/11 17:58:57;;;;;;;5.47;2.13;;;;;;;18.98;64.39;102754.63;4874995;29;20398;-90
2021/10/11 18:05:29;;;;;;;5.57;2.42;;;;;;;18.85;64.84;102754.44;4912468;29;20047;-88
2021/10/11 18:21:36;;;;;;;4.95;1.90;;;;;;;18.71;65.00;102766.34;4869663;29;20044;-87
2021/10/11 18:34:08;;;;;;;7.10;2.20;;;;;;;18.69;65.25;102741.97;4914065;29;20068;-84
2021/10/11 18:36:36;;;;;;;5.18;1.95;;;;;;;18.68;65.19;102743.72;4890721;29;20540;-87
2021/10/11 18:39:04;;;;;;;6.47;2.00;;;;;;;18.66;65.14;102742.81;4876630;29;20055;-88
2021/10/11 18:41:33;;;;;;;5.55;2.03;;;;;;;18.65;65.36;102737.56;4905635;29;20033;-91
2021/10/11 18:43:58;;;;;;;5.45;2.03;;;;;;;18.67;65.11;102741.94;4895164;29;20131;-88
2021/10/11 18:46:24;;;;;;;4.40;1.70;;;;;;;18.66;65.96;102736.69;4866984;29;20106;-88
2021/10/11 18:48:49;;;;;;;5.85;2.22;;;;;;;18.69;65.96;102741.97;4881368;29;20435;-88
2021/10/11 18:51:17;;;;;;;6.55;2.17;;;;;;;18.69;66.73;102740.25;4895339;29;20064;-86
2021/10/11 18:53:43;;;;;;;5.40;2.20;;;;;;;18.70;66.69;102742.03;4880513;29;20041;-89
2021/10/11 18:56:15;;;;;;;5.15;2.10;;;;;;;18.70;66.78;102743.72;4894009;29;20059;-88
2021/10/11 18:58:40;;;;;;;5.68;1.90;;;;;;;18.73;67.14;102751.63;4892963;29;20024;-90
2021/10/11 19:01:06;;;;;;;5.93;2.15;;;;;;;18.71;66.75;102750.72;4879046;29;20028;-90
2021/10/11 19:03:31;;;;;;;5.97;2.13;;;;;;;18.71;66.87;102746.38;4891794;29;20028;-89
2021/10/11 19:05:57;;;;;;;8.02;2.10;;;;;;;18.71;66.67;102748.97;4892837;29;20115;-87
2021/10/11 19:08:23;;;;;;;6.00;2.17;;;;;;;18.71;66.63;102753.31;4892435;29;20025;-86
2021/10/11 19:10:50;;;;;;;6.80;2.20;;;;;;;18.70;66.57;102755.06;4893011;29;20111;-85
2021/10/11 19:13:17;;;;;;;6.68;2.08;;;;;;;18.70;66.24;102751.53;4898149;29;20043;-88
2021/10/11 19:15:45;;;;;;;6.45;2.05;;;;;;;18.70;66.66;102754.16;4893361;29;20032;-88
2021/10/11 19:18:12;;;;;;;7.20;2.13;;;;;;;18.69;66.46;102760.25;4891002;29;20474;-87
2021/10/11 19:20:56;;;;;;;4.95;1.98;;;;;;;18.70;66.73;102756.75;4877598;29;20062;-87
2021/10/11 19:23:22;;;;;;;5.03;1.73;;;;;;;18.68;66.48;102759.38;4895941;29;20036;-88
2021/10/11 19:25:49;;;;;;;5.40;1.90;;;;;;;18.67;66.79;102744.56;4897096;29;20031;-87
2021/10/11 19:28:15;;;;;;;6.25;1.80;;;;;;;18.68;66.78;102746.31;4898891;29;20029;-87
2021/10/11 19:30:47;;;;;;;4.57;1.63;;;;;;;18.66;66.85;102740.22;4900582;29;20037;-87
2021/10/11 19:33:32;;;;;;;5.35;2.33;;;;;;;18.68;66.56;102738.50;4901030;29;20021;-86
2021/10/11 19:35:58;;;;;;;5.05;1.70;;;;;;;18.67;66.91;102728.91;4900801;29;20029;-87
2021/10/11 19:38:23;;;;;;;5.57;1.83;;;;;;;18.68;66.78;102735.00;4885592;29;20037;-86
2021/10/11 19:44:12;;;;;;;5.75;2.13;;;;;;;18.68;66.82;102732.38;4918314;29;20039;-88
2021/10/11 19:46:38;;;;;;;4.57;1.75;;;;;;;18.66;66.62;102727.16;4900971;29;20044;-88
2021/10/11 19:49:04;;;;;;;3.00;1.35;;;;;;;18.67;66.50;102722.81;4913804;29;20076;-86
2021/10/11 19:51:30;;;;;;;6.53;1.80;;;;;;;18.68;66.66;102716.75;4878072;29;20040;-87
2021/10/11 19:53:56;;;;;;;9.93;2.10;;;;;;;18.66;66.68;102711.53;4894520;29;20036;-85
2021/10/11 19:56:21;;;;;;;5.13;1.80;;;;;;;18.66;66.83;102721.06;4891039;29;20453;-86
2021/10/11 19:58:50;;;;;;;5.20;1.88;;;;;;;18.64;66.62;102702.78;4891790;29;20072;-85
2021/10/11 20:01:53;;;;;;;4.20;1.75;;;;;;;18.67;66.63;102704.56;4893722;29;20036;-86
2021/10/11 20:04:19;;;;;;;5.53;1.45;;;;;;;18.67;66.82;102713.25;4896591;29;20028;-87
2021/10/11 20:06:46;;;;;;;5.18;1.90;;;;;;;18.65;66.54;102706.28;4900408;29;20029;-89
2021/10/11 20:09:12;;;;;;;5.38;1.80;;;;;;;18.65;66.37;102719.31;4899054;29;20029;-90
2021/10/11 20:11:38;;;;;;;5.57;1.83;;;;;;;18.62;66.53;102707.09;4865555;29;20059;-89
2021/10/11 20:14:03;;;;;;;6.22;2.15;;;;;;;18.64;66.70;102707.09;4896884;29;20068;-88
2021/10/11 20:16:29;;;;;;;6.15;1.73;;;;;;;18.64;66.67;102723.66;4879809;29;20096;-88
2021/10/11 20:18:54;;;;;;;5.93;1.90;;;;;;;18.63;66.76;102715.81;4874937;29;20043;-86
2021/10/11 20:21:20;;;;;;;5.32;1.83;;;;;;;18.63;66.59;102705.38;4888517;29;20056;-86
2021/10/11 20:23:45;;;;;;;3.28;1.42;;;;;;;18.62;66.46;102699.28;4889001;29;20025;-84
2021/10/11 20:26:13;;;;;;;3.95;1.48;;;;;;;18.62;66.60;102696.69;4888699;29;20068;-85
2021/10/11 20:28:38;;;;;;;5.53;1.73;;;;;;;18.61;66.62;102694.91;4888576;29;20052;-85
2021/10/11 20:31:04;;;;;;;4.40;1.42;;;;;;;18.62;66.60;102694.06;4876297;29;20078;-88
2021/10/11 20:33:34;;;;;;;4.80;1.83;;;;;;;18.62;66.70;102694.06;4893043;29;20450;-86
2021/10/11 20:36:01;;;;;;;3.08;1.60;;;;;;;18.62;66.30;102690.59;4891767;29;20033;-86
2021/10/11 20:38:36;;;;;;;4.28;1.80;;;;;;;18.60;66.62;102695.78;4891823;29;20089;-85
2021/10/11 20:41:02;;;;;;;3.83;1.30;;;;;;;18.62;66.58;102695.81;4894952;29;20028;-89
2021/10/11 20:43:27;;;;;;;3.83;1.40;;;;;;;18.58;66.64;102692.25;4895882;29;20393;-86
2021/10/11 20:45:54;;;;;;;5.03;1.80;;;;;;;18.61;66.51;102691.44;4912325;29;20114;-87
2021/10/11 20:48:20;;;;;;;3.97;1.50;;;;;;;18.60;66.46;102693.16;4896447;29;20051;-86
2021/10/11 20:50:45;;;;;;;3.05;1.50;;;;;;;18.60;66.48;102687.94;4896116;29;20045;-87
2021/10/11 20:56:35;;;;;;;3.55;1.75;;;;;;;18.59;66.58;102687.91;4913967;29;20060;-85
2021/10/11 21:02:07;;;;;;;5.32;1.75;;;;;;;18.60;66.55;102689.69;4913334;29;20037;-86
2021/10/11 21:04:57;;;;;;;5.05;1.73;;;;;;;18.61;66.44;102687.09;4899522;29;20060;-85
2021/10/11 21:07:22;;;;;;;3.70;1.50;;;;;;;18.61;66.46;102687.09;4894235;29;20024;-84
2021/10/11 21:09:47;;;;;;;4.50;1.50;;;;;;;18.60;66.44;102685.34;4877206;29;20160;-85
2021/10/11 21:15:42;;;;;;;5.20;1.50;;;;;;;18.58;66.44;102674.00;4917752;29;20055;-86
2021/10/11 21:18:08;;;;;;;4.25;1.60;;;;;;;18.59;66.51;102667.06;4895178;29;20024;-88
2021/10/11 21:27:18;;;;;;;3.88;1.50;;;;;;;18.57;66.17;102656.59;4875970;29;20430;-87
2021/10/11 21:29:43;;;;;;;3.70;1.70;;;;;;;18.57;66.38;102653.13;4859000;29;20092;-89
2021/10/11 21:35:31;;;;;;;4.15;1.48;;;;;;;18.60;66.15;102651.44;4877708;29;20072;-90
2021/10/11 21:45:10;;;;;;;4.10;1.48;;;;;;;18.60;66.38;102651.44;4935931;29;20047;-88
2021/10/11 21:47:37;;;;;;;3.10;1.05;;;;;;;18.57;66.27;102640.94;4919214;29;20040;-85
2021/10/11 21:50:09;;;;;;;5.40;1.40;;;;;;;18.59;65.94;102643.59;4915800;29;20032;-86
2021/10/11 21:52:35;;;;;;;3.63;1.70;;;;;;;18.60;66.25;102642.75;4916120;29;20111;-84
2021/10/11 21:58:23;;;;;;;3.78;1.35;;;;;;;18.60;66.19;102642.75;4929952;29;20067;-87
2021/10/11 22:00:54;;;;;;;3.20;1.27;;;;;;;18.61;65.62;102647.09;4912650;29;20028;-84
2021/10/11 22:03:20;;;;;;;2.70;1.30;;;;;;;18.59;66.33;102635.78;4916224;29;20032;-86
2021/10/11 22:05:46;;;;;;;4.07;1.38;;;;;;;18.59;66.18;102636.63;4912931;29;20095;-85
2021/10/11 22:08:14;;;;;;;5.00;1.20;;;;;;;18.58;65.96;102637.50;4892259;29;20028;-85
2021/10/11 22:11:02;;;;;;;3.28;1.30;;;;;;;18.60;66.15;102632.31;4910897;29;20036;-86
2021/10/11 22:13:28;;;;;;;6.03;1.20;;;;;;;18.57;65.94;102627.91;4929326;29;20056;-85
2021/10/11 22:15:54;;;;;;;3.85;1.30;;;;;;;18.60;66.00;102627.13;4911626;29;20086;-86
2021/10/11 22:18:19;;;;;;;3.20;1.45;;;;;;;18.58;66.15;102621.00;4913436;29;20024;-85
2021/10/11 22:20:46;;;;;;;3.88;1.20;;;;;;;18.58;66.00;102624.47;4897340;29;20028;-88
2021/10/11 22:23:12;;;;;;;4.60;1.27;;;;;;;18.59;65.96;102630.56;4911262;29;20035;-85
2021/10/11 22:25:38;;;;;;;2.88;1.33;;;;;;;18.58;65.95;102619.25;4911791;29;20036;-85
2021/10/11 22:28:05;;;;;;;5.47;1.30;;;;;;;18.57;65.84;102622.69;4911854;29;20024;-85
2021/10/11 22:37:16;;;;;;;3.90;1.30;;;;;;;18.56;65.85;102610.53;4933789;29;20047;-85
2021/10/11 22:44:28;;;;;;;3.17;1.35;;;;;;;18.57;65.71;102611.41;4915239;29;20108;-86
2021/10/11 22:50:44;;;;;;;5.35;1.13;;;;;;;18.56;65.52;102604.44;4919011;29;20048;-86
2021/10/11 23:06:05;;;;;;;2.60;1.10;;;;;;;18.55;65.74;102598.34;4990140;23;20052;-84
2021/10/11 23:18:46;;;;;;;4.47;1.30;;;;;;;18.56;65.64;102584.47;4929512;29;20046;-86
2021/10/11 23:31:40;;;;;;;3.85;1.38;;;;;;;18.56;65.48;102584.47;4876486;29;20048;-85
2021/10/11 23:47:06;;;;;;;3.83;1.30;;;;;;;18.53;65.28;102554.84;5171214;23;20077;-87
